sensor_id;sensor_type;location;lat;lon;timestamp;P1;durP1;ratioP1;P2;durP2;ratioP2
26588;SDS011;14235;48.532;8.722;2022-09-21T00:01:28;3.33;;;2.28;;
26588;SDS011;14235;48.532;8.722;2022-09-21T00:03:58;2.50;;;2.30;;
26588;SDS011;14235;48.532;8.722;2022-09-21T00:06:25;2.60;;;2.40;;
26588;SDS011;14235;48.532;8.722;2022-09-21T00:08:52;2.75;;;2.55;;
26588;SDS011;14235;48.532;8.722;2022-09-21T00:11:20;2.65;;;2.45;;
26588;SDS011;14235;48.532;8.722;2022-09-21T00:13:53;3.30;;;2.38;;
26588;SDS011;14235;48.532;8.722;2022-09-21T00:16:20;2.90;;;2.45;;
26588;SDS011;14235;48.532;8.722;2022-09-21T00:18:46;3.13;;;2.30;;
26588;SDS011;14235;48.532;8.722;2022-09-21T00:21:13;2.45;;;2.35;;
26588;SDS011;14235;48.532;8.722;2022-09-21T00:23:39;4.68;;;2.58;;
26588;SDS011;14235;48.532;8.722;2022-09-21T00:26:11;2.60;;;2.40;;
26588;SDS011;14235;48.532;8.722;2022-09-21T00:28:39;2.50;;;2.30;;
26588;SDS011;14235;48.532;8.722;2022-09-21T00:31:06;2.63;;;2.00;;
26588;SDS011;14235;48.532;8.722;2022-09-21T00:33:35;2.50;;;2.30;;
26588;SDS011;14235;48.532;8.722;2022-09-21T00:36:01;2.72;;;2.50;;
26588;SDS011;14235;48.532;8.722;2022-09-21T00:38:28;2.40;;;2.17;;
26588;SDS011;14235;48.532;8.722;2022-09-21T00:40:54;3.30;;;2.33;;
26588;SDS011;14235;48.532;8.722;2022-09-21T00:43:20;2.50;;;2.40;;
26588;SDS011;14235;48.532;8.722;2022-09-21T00:45:47;3.75;;;2.63;;
26588;SDS011;14235;48.532;8.722;2022-09-21T00:48:16;3.47;;;2.35;;
26588;SDS011;14235;48.532;8.722;2022-09-21T00:50:45;2.80;;;2.60;;
26588;SDS011;14235;48.532;8.722;2022-09-21T00:53:17;2.60;;;2.33;;
26588;SDS011;14235;48.532;8.722;2022-09-21T00:55:45;3.50;;;2.30;;
26588;SDS011;14235;48.532;8.722;2022-09-21T00:58:18;2.88;;;2.67;;
26588;SDS011;14235;48.532;8.722;2022-09-21T01:00:48;2.92;;;2.25;;
26588;SDS011;14235;48.532;8.722;2022-09-21T01:03:13;3.95;;;2.53;;
26588;SDS011;14235;48.532;8.722;2022-09-21T01:05:39;2.50;;;2.30;;
26588;SDS011;14235;48.532;8.722;2022-09-21T01:08:05;3.80;;;2.28;;
26588;SDS011;14235;48.532;8.722;2022-09-21T01:16:00;2.72;;;2.58;;
26588;SDS011;14235;48.532;8.722;2022-09-21T01:18:44;2.47;;;2.28;;
26588;SDS011;14235;48.532;8.722;2022-09-21T01:21:23;3.22;;;2.40;;
26588;SDS011;14235;48.532;8.722;2022-09-21T01:29:26;2.90;;;2.70;;
26588;SDS011;14235;48.532;8.722;2022-09-21T01:34:43;2.72;;;2.47;;
26588;SDS011;14235;48.532;8.722;2022-09-21T01:37:40;2.97;;;2.22;;
26588;SDS011;14235;48.532;8.722;2022-09-21T01:40:08;2.70;;;2.15;;
26588;SDS011;14235;48.532;8.722;2022-09-21T01:42:39;2.03;;;1.92;;
26588;SDS011;14235;48.532;8.722;2022-09-21T01:45:09;2.30;;;2.10;;
26588;SDS011;14235;48.532;8.722;2022-09-21T01:47:40;2.30;;;2.10;;
26588;SDS011;14235;48.532;8.722;2022-09-21T01:50:07;2.58;;;2.10;;
26588;SDS011;14235;48.532;8.722;2022-09-21T01:52:44;2.75;;;2.10;;
26588;SDS011;14235;48.532;8.722;2022-09-21T01:55:26;2.42;;;2.25;;
26588;SDS011;14235;48.532;8.722;2022-09-21T01:58:07;2.85;;;2.08;;
26588;SDS011;14235;48.532;8.722;2022-09-21T02:00:48;4.40;;;2.22;;
26588;SDS011;14235;48.532;8.722;2022-09-21T02:03:28;2.80;;;2.15;;
26588;SDS011;14235;48.532;8.722;2022-09-21T02:06:00;2.88;;;2.08;;
26588;SDS011;14235;48.532;8.722;2022-09-21T02:08:29;2.85;;;2.13;;
26588;SDS011;14235;48.532;8.722;2022-09-21T02:10:56;3.40;;;2.10;;
26588;SDS011;14235;48.532;8.722;2022-09-21T02:13:23;2.67;;;2.40;;
26588;SDS011;14235;48.532;8.722;2022-09-21T02:18:34;4.13;;;2.25;;
26588;SDS011;14235;48.532;8.722;2022-09-21T02:27:18;2.72;;;2.20;;
26588;SDS011;14235;48.532;8.722;2022-09-21T02:38:13;3.10;;;2.00;;
26588;SDS011;14235;48.532;8.722;2022-09-21T02:40:50;1.83;;;1.73;;
26588;SDS011;14235;48.532;8.722;2022-09-21T02:43:29;1.83;;;1.73;;
26588;SDS011;14235;48.532;8.722;2022-09-21T02:46:00;1.90;;;1.80;;
26588;SDS011;14235;48.532;8.722;2022-09-21T02:48:37;2.57;;;2.10;;
26588;SDS011;14235;48.532;8.722;2022-09-21T02:51:12;2.28;;;2.00;;
26588;SDS011;14235;48.532;8.722;2022-09-21T02:53:45;2.30;;;2.10;;
26588;SDS011;14235;48.532;8.722;2022-09-21T02:56:13;2.50;;;1.88;;
26588;SDS011;14235;48.532;8.722;2022-09-21T02:58:41;2.37;;;2.17;;
26588;SDS011;14235;48.532;8.722;2022-09-21T03:01:11;2.97;;;2.00;;
26588;SDS011;14235;48.532;8.722;2022-09-21T03:03:39;3.17;;;2.10;;
26588;SDS011;14235;48.532;8.722;2022-09-21T03:06:05;3.47;;;2.17;;
26588;SDS011;14235;48.532;8.722;2022-09-21T03:08:31;2.60;;;1.93;;
26588;SDS011;14235;48.532;8.722;2022-09-21T03:10:57;2.30;;;2.10;;
26588;SDS011;14235;48.532;8.722;2022-09-21T03:13:23;3.70;;;2.03;;
26588;SDS011;14235;48.532;8.722;2022-09-21T03:15:49;2.70;;;2.07;;
26588;SDS011;14235;48.532;8.722;2022-09-21T03:18:25;3.40;;;2.10;;
26588;SDS011;14235;48.532;8.722;2022-09-21T03:20:51;3.73;;;2.00;;
26588;SDS011;14235;48.532;8.722;2022-09-21T03:23:17;1.93;;;1.80;;
26588;SDS011;14235;48.532;8.722;2022-09-21T03:25:43;2.53;;;1.87;;
26588;SDS011;14235;48.532;8.722;2022-09-21T03:28:10;2.30;;;2.10;;
26588;SDS011;14235;48.532;8.722;2022-09-21T03:30:37;2.40;;;2.20;;
26588;SDS011;14235;48.532;8.722;2022-09-21T03:33:03;1.73;;;1.63;;
26588;SDS011;14235;48.532;8.722;2022-09-21T03:35:30;2.50;;;2.17;;
26588;SDS011;14235;48.532;8.722;2022-09-21T03:38:00;3.73;;;1.83;;
26588;SDS011;14235;48.532;8.722;2022-09-21T03:40:26;1.77;;;1.70;;
26588;SDS011;14235;48.532;8.722;2022-09-21T03:42:54;2.37;;;2.17;;
26588;SDS011;14235;48.532;8.722;2022-09-21T03:45:21;2.20;;;2.00;;
26588;SDS011;14235;48.532;8.722;2022-09-21T03:47:47;2.13;;;1.93;;
26588;SDS011;14235;48.532;8.722;2022-09-21T03:50:13;3.67;;;1.93;;
26588;SDS011;14235;48.532;8.722;2022-09-21T03:52:39;1.90;;;1.80;;
26588;SDS011;14235;48.532;8.722;2022-09-21T03:55:06;2.83;;;1.93;;
26588;SDS011;14235;48.532;8.722;2022-09-21T03:57:33;1.93;;;1.83;;
26588;SDS011;14235;48.532;8.722;2022-09-21T04:00:00;3.80;;;2.37;;
26588;SDS011;14235;48.532;8.722;2022-09-21T04:02:28;1.77;;;1.67;;
26588;SDS011;14235;48.532;8.722;2022-09-21T04:04:55;2.43;;;2.10;;
26588;SDS011;14235;48.532;8.722;2022-09-21T04:07:21;2.37;;;2.17;;
26588;SDS011;14235;48.532;8.722;2022-09-21T04:09:47;4.13;;;2.17;;
26588;SDS011;14235;48.532;8.722;2022-09-21T04:12:13;3.50;;;2.27;;
26588;SDS011;14235;48.532;8.722;2022-09-21T04:14:39;2.50;;;2.00;;
26588;SDS011;14235;48.532;8.722;2022-09-21T04:17:06;8.87;;;2.20;;
26588;SDS011;14235;48.532;8.722;2022-09-21T04:19:32;1.97;;;1.87;;
26588;SDS011;14235;48.532;8.722;2022-09-21T04:21:58;3.83;;;2.20;;
26588;SDS011;14235;48.532;8.722;2022-09-21T04:24:24;2.50;;;1.80;;
26588;SDS011;14235;48.532;8.722;2022-09-21T04:26:51;2.67;;;2.23;;
26588;SDS011;14235;48.532;8.722;2022-09-21T04:29:17;2.10;;;1.80;;
26588;SDS011;14235;48.532;8.722;2022-09-21T04:31:43;2.27;;;2.07;;
26588;SDS011;14235;48.532;8.722;2022-09-21T04:34:12;1.60;;;1.50;;
26588;SDS011;14235;48.532;8.722;2022-09-21T04:36:38;2.10;;;1.80;;
26588;SDS011;14235;48.532;8.722;2022-09-21T04:39:04;2.27;;;1.63;;
26588;SDS011;14235;48.532;8.722;2022-09-21T04:41:30;2.60;;;2.00;;
26588;SDS011;14235;48.532;8.722;2022-09-21T04:43:56;1.80;;;1.70;;
26588;SDS011;14235;48.532;8.722;2022-09-21T04:46:22;3.27;;;2.23;;
26588;SDS011;14235;48.532;8.722;2022-09-21T04:48:48;1.90;;;1.80;;
26588;SDS011;14235;48.532;8.722;2022-09-21T04:51:15;1.97;;;1.87;;
26588;SDS011;14235;48.532;8.722;2022-09-21T04:53:42;2.43;;;2.20;;
26588;SDS011;14235;48.532;8.722;2022-09-21T04:56:08;2.23;;;2.07;;
26588;SDS011;14235;48.532;8.722;2022-09-21T04:58:35;2.33;;;1.90;;
26588;SDS011;14235;48.532;8.722;2022-09-21T05:01:01;2.20;;;2.00;;
26588;SDS011;14235;48.532;8.722;2022-09-21T05:03:28;2.67;;;2.00;;
26588;SDS011;14235;48.532;8.722;2022-09-21T05:05:55;3.77;;;2.30;;
26588;SDS011;14235;48.532;8.722;2022-09-21T05:08:23;2.50;;;1.70;;
26588;SDS011;14235;48.532;8.722;2022-09-21T05:11:09;2.43;;;1.83;;
26588;SDS011;14235;48.532;8.722;2022-09-21T05:13:39;6.20;;;2.08;;
26588;SDS011;14235;48.532;8.722;2022-09-21T05:16:06;3.60;;;2.43;;
26588;SDS011;14235;48.532;8.722;2022-09-21T05:18:32;2.50;;;2.30;;
26588;SDS011;14235;48.532;8.722;2022-09-21T05:21:01;2.50;;;2.37;;
26588;SDS011;14235;48.532;8.722;2022-09-21T05:23:28;2.90;;;2.60;;
26588;SDS011;14235;48.532;8.722;2022-09-21T05:25:55;6.13;;;2.87;;
26588;SDS011;14235;48.532;8.722;2022-09-21T05:28:21;7.50;;;2.70;;
26588;SDS011;14235;48.532;8.722;2022-09-21T05:30:51;2.83;;;2.60;;
26588;SDS011;14235;48.532;8.722;2022-09-21T05:33:19;2.77;;;2.50;;
26588;SDS011;14235;48.532;8.722;2022-09-21T05:35:58;3.87;;;2.47;;
26588;SDS011;14235;48.532;8.722;2022-09-21T05:38:27;2.67;;;2.33;;
26588;SDS011;14235;48.532;8.722;2022-09-21T05:40:53;3.20;;;2.57;;
26588;SDS011;14235;48.532;8.722;2022-09-21T05:43:19;2.50;;;2.30;;
26588;SDS011;14235;48.532;8.722;2022-09-21T05:45:47;2.40;;;2.20;;
26588;SDS011;14235;48.532;8.722;2022-09-21T05:48:18;2.20;;;2.07;;
26588;SDS011;14235;48.532;8.722;2022-09-21T05:53:37;2.30;;;2.10;;
26588;SDS011;14235;48.532;8.722;2022-09-21T05:56:16;1.90;;;1.80;;
26588;SDS011;14235;48.532;8.722;2022-09-21T05:59:09;2.40;;;2.13;;
26588;SDS011;14235;48.532;8.722;2022-09-21T06:05:11;2.73;;;2.50;;
26588;SDS011;14235;48.532;8.722;2022-09-21T06:07:38;2.77;;;2.07;;
26588;SDS011;14235;48.532;8.722;2022-09-21T06:10:05;4.70;;;2.07;;
26588;SDS011;14235;48.532;8.722;2022-09-21T06:12:32;2.53;;;2.30;;
26588;SDS011;14235;48.532;8.722;2022-09-21T06:14:58;2.00;;;1.90;;
26588;SDS011;14235;48.532;8.722;2022-09-21T06:17:23;4.50;;;2.20;;
26588;SDS011;14235;48.532;8.722;2022-09-21T06:19:51;2.57;;;2.37;;
26588;SDS011;14235;48.532;8.722;2022-09-21T06:22:17;2.30;;;2.13;;
26588;SDS011;14235;48.532;8.722;2022-09-21T06:24:43;3.23;;;2.20;;
26588;SDS011;14235;48.532;8.722;2022-09-21T06:27:09;2.50;;;2.30;;
26588;SDS011;14235;48.532;8.722;2022-09-21T06:29:34;3.17;;;2.17;;
26588;SDS011;14235;48.532;8.722;2022-09-21T06:32:01;2.80;;;2.60;;
26588;SDS011;14235;48.532;8.722;2022-09-21T06:34:27;3.03;;;2.73;;
26588;SDS011;14235;48.532;8.722;2022-09-21T06:36:53;6.37;;;3.33;;
26588;SDS011;14235;48.532;8.722;2022-09-21T06:39:18;3.10;;;2.90;;
26588;SDS011;14235;48.532;8.722;2022-09-21T06:41:44;9.87;;;3.47;;
26588;SDS011;14235;48.532;8.722;2022-09-21T06:44:10;3.57;;;3.27;;
26588;SDS011;14235;48.532;8.722;2022-09-21T06:46:35;4.20;;;2.90;;
26588;SDS011;14235;48.532;8.722;2022-09-21T06:49:01;5.40;;;3.30;;
26588;SDS011;14235;48.532;8.722;2022-09-21T06:51:27;3.23;;;3.03;;
26588;SDS011;14235;48.532;8.722;2022-09-21T06:53:53;3.83;;;3.33;;
26588;SDS011;14235;48.532;8.722;2022-09-21T06:56:20;4.57;;;3.50;;
26588;SDS011;14235;48.532;8.722;2022-09-21T06:58:46;4.63;;;3.57;;
26588;SDS011;14235;48.532;8.722;2022-09-21T07:01:12;7.67;;;3.30;;
26588;SDS011;14235;48.532;8.722;2022-09-21T07:03:39;3.70;;;3.13;;
26588;SDS011;14235;48.532;8.722;2022-09-21T07:06:06;3.80;;;3.40;;
26588;SDS011;14235;48.532;8.722;2022-09-21T07:08:35;4.30;;;3.73;;
26588;SDS011;14235;48.532;8.722;2022-09-21T07:11:01;3.43;;;3.13;;
26588;SDS011;14235;48.532;8.722;2022-09-21T07:13:27;7.00;;;3.60;;
26588;SDS011;14235;48.532;8.722;2022-09-21T07:15:53;3.77;;;3.47;;
26588;SDS011;14235;48.532;8.722;2022-09-21T07:18:19;4.63;;;3.60;;
26588;SDS011;14235;48.532;8.722;2022-09-21T07:20:46;4.00;;;3.60;;
26588;SDS011;14235;48.532;8.722;2022-09-21T07:23:14;4.07;;;3.67;;
26588;SDS011;14235;48.532;8.722;2022-09-21T07:25:44;3.37;;;3.17;;
26588;SDS011;14235;48.532;8.722;2022-09-21T07:28:17;4.00;;;3.60;;
26588;SDS011;14235;48.532;8.722;2022-09-21T07:30:43;3.43;;;3.20;;
26588;SDS011;14235;48.532;8.722;2022-09-21T07:33:09;4.30;;;3.90;;
26588;SDS011;14235;48.532;8.722;2022-09-21T07:35:35;4.70;;;3.85;;
26588;SDS011;14235;48.532;8.722;2022-09-21T07:38:03;4.97;;;3.70;;
26588;SDS011;14235;48.532;8.722;2022-09-21T07:40:30;4.23;;;3.53;;
26588;SDS011;14235;48.532;8.722;2022-09-21T07:42:59;5.82;;;3.60;;
26588;SDS011;14235;48.532;8.722;2022-09-21T07:45:28;5.13;;;4.10;;
26588;SDS011;14235;48.532;8.722;2022-09-21T07:47:55;4.27;;;3.53;;
26588;SDS011;14235;48.532;8.722;2022-09-21T07:50:25;5.22;;;3.60;;
26588;SDS011;14235;48.532;8.722;2022-09-21T07:52:51;3.90;;;3.60;;
26588;SDS011;14235;48.532;8.722;2022-09-21T07:55:17;5.47;;;3.38;;
26588;SDS011;14235;48.532;8.722;2022-09-21T07:57:42;4.20;;;3.80;;
26588;SDS011;14235;48.532;8.722;2022-09-21T08:00:27;4.13;;;3.73;;
26588;SDS011;14235;48.532;8.722;2022-09-21T08:02:56;4.83;;;3.87;;
26588;SDS011;14235;48.532;8.722;2022-09-21T08:05:22;4.37;;;3.97;;
26588;SDS011;14235;48.532;8.722;2022-09-21T08:07:48;4.27;;;3.97;;
26588;SDS011;14235;48.532;8.722;2022-09-21T08:10:13;4.20;;;3.90;;
26588;SDS011;14235;48.532;8.722;2022-09-21T08:12:39;4.43;;;4.03;;
26588;SDS011;14235;48.532;8.722;2022-09-21T08:15:05;5.55;;;4.38;;
26588;SDS011;14235;48.532;8.722;2022-09-21T08:17:31;5.45;;;4.32;;
26588;SDS011;14235;48.532;8.722;2022-09-21T08:19:57;5.60;;;4.15;;
26588;SDS011;14235;48.532;8.722;2022-09-21T08:22:23;4.32;;;3.97;;
26588;SDS011;14235;48.532;8.722;2022-09-21T08:24:50;4.07;;;3.72;;
26588;SDS011;14235;48.532;8.722;2022-09-21T08:27:16;7.35;;;4.28;;
26588;SDS011;14235;48.532;8.722;2022-09-21T08:29:44;5.03;;;4.38;;
26588;SDS011;14235;48.532;8.722;2022-09-21T08:32:12;6.13;;;4.55;;
26588;SDS011;14235;48.532;8.722;2022-09-21T08:34:41;5.72;;;4.32;;
26588;SDS011;14235;48.532;8.722;2022-09-21T08:37:06;9.82;;;5.00;;
26588;SDS011;14235;48.532;8.722;2022-09-21T08:39:32;5.97;;;4.53;;
26588;SDS011;14235;48.532;8.722;2022-09-21T08:45:03;5.95;;;4.32;;
26588;SDS011;14235;48.532;8.722;2022-09-21T08:47:51;7.00;;;4.80;;
26588;SDS011;14235;48.532;8.722;2022-09-21T08:51:03;5.72;;;4.40;;
26588;SDS011;14235;48.532;8.722;2022-09-21T08:53:17;5.15;;;4.65;;
26588;SDS011;14235;48.532;8.722;2022-09-21T08:55:46;5.72;;;4.10;;
26588;SDS011;14235;48.532;8.722;2022-09-21T08:58:32;9.32;;;5.38;;
26588;SDS011;14235;48.532;8.722;2022-09-21T09:01:13;9.07;;;5.00;;
26588;SDS011;14235;48.532;8.722;2022-09-21T09:04:18;3.88;;;3.22;;
26588;SDS011;14235;48.532;8.722;2022-09-21T09:15:33;3.10;;;2.25;;
26588;SDS011;14235;48.532;8.722;2022-09-21T09:24:02;2.85;;;2.08;;
26588;SDS011;14235;48.532;8.722;2022-09-21T09:26:45;2.00;;;1.73;;
26588;SDS011;14235;48.532;8.722;2022-09-21T09:32:13;2.35;;;1.92;;
26588;SDS011;14235;48.532;8.722;2022-09-21T09:34:42;2.85;;;2.13;;
26588;SDS011;14235;48.532;8.722;2022-09-21T09:37:17;3.95;;;2.00;;
26588;SDS011;14235;48.532;8.722;2022-09-21T09:39:50;2.42;;;1.95;;
26588;SDS011;14235;48.532;8.722;2022-09-21T09:48:17;2.17;;;1.80;;
26588;SDS011;14235;48.532;8.722;2022-09-21T09:50:53;3.60;;;1.80;;
26588;SDS011;14235;48.532;8.722;2022-09-21T09:53:22;2.90;;;2.03;;
26588;SDS011;14235;48.532;8.722;2022-09-21T09:55:51;5.35;;;1.90;;
26588;SDS011;14235;48.532;8.722;2022-09-21T09:58:20;3.72;;;1.40;;
26588;SDS011;14235;48.532;8.722;2022-09-21T10:00:51;4.90;;;1.80;;
26588;SDS011;14235;48.532;8.722;2022-09-21T10:03:24;2.00;;;1.80;;
26588;SDS011;14235;48.532;8.722;2022-09-21T10:05:51;2.53;;;1.55;;
26588;SDS011;14235;48.532;8.722;2022-09-21T10:08:27;2.90;;;1.80;;
26588;SDS011;14235;48.532;8.722;2022-09-21T10:11:12;2.05;;;1.92;;
26588;SDS011;14235;48.532;8.722;2022-09-21T10:13:42;1.65;;;1.55;;
26588;SDS011;14235;48.532;8.722;2022-09-21T10:18:42;1.98;;;1.75;;
26588;SDS011;14235;48.532;8.722;2022-09-21T10:21:19;1.98;;;1.88;;
26588;SDS011;14235;48.532;8.722;2022-09-21T10:24:04;2.03;;;1.83;;
26588;SDS011;14235;48.532;8.722;2022-09-21T10:26:43;1.73;;;1.48;;
26588;SDS011;14235;48.532;8.722;2022-09-21T10:34:37;2.53;;;1.70;;
26588;SDS011;14235;48.532;8.722;2022-09-21T10:37:25;2.85;;;1.70;;
26588;SDS011;14235;48.532;8.722;2022-09-21T10:39:54;2.17;;;1.70;;
26588;SDS011;14235;48.532;8.722;2022-09-21T10:42:23;2.03;;;1.27;;
26588;SDS011;14235;48.532;8.722;2022-09-21T10:44:51;1.60;;;1.00;;
26588;SDS011;14235;48.532;8.722;2022-09-21T10:47:37;1.65;;;1.20;;
26588;SDS011;14235;48.532;8.722;2022-09-21T10:53:26;1.48;;;1.20;;
26588;SDS011;14235;48.532;8.722;2022-09-21T10:58:22;2.55;;;1.30;;
26588;SDS011;14235;48.532;8.722;2022-09-21T11:00:49;3.58;;;1.27;;
26588;SDS011;14235;48.532;8.722;2022-09-21T11:06:21;1.58;;;1.08;;
26588;SDS011;14235;48.532;8.722;2022-09-21T11:09:18;1.20;;;0.80;;
26588;SDS011;14235;48.532;8.722;2022-09-21T11:11:51;0.73;;;0.73;;
26588;SDS011;14235;48.532;8.722;2022-09-21T11:14:42;1.00;;;1.00;;
26588;SDS011;14235;48.532;8.722;2022-09-21T11:19:51;2.42;;;0.90;;
26588;SDS011;14235;48.532;8.722;2022-09-21T11:22:34;2.08;;;0.93;;
26588;SDS011;14235;48.532;8.722;2022-09-21T11:28:20;1.15;;;1.02;;
26588;SDS011;14235;48.532;8.722;2022-09-21T11:36:44;0.73;;;0.70;;
26588;SDS011;14235;48.532;8.722;2022-09-21T11:39:32;1.08;;;1.00;;
26588;SDS011;14235;48.532;8.722;2022-09-21T11:44:59;0.82;;;0.82;;
26588;SDS011;14235;48.532;8.722;2022-09-21T11:50:38;1.23;;;1.13;;
26588;SDS011;14235;48.532;8.722;2022-09-21T11:56:23;2.20;;;0.85;;
26588;SDS011;14235;48.532;8.722;2022-09-21T12:07:06;4.05;;;1.40;;
26588;SDS011;14235;48.532;8.722;2022-09-21T12:15:31;1.67;;;1.27;;
26588;SDS011;14235;48.532;8.722;2022-09-21T12:18:13;0.98;;;0.68;;
26588;SDS011;14235;48.532;8.722;2022-09-21T12:20:49;1.27;;;0.93;;
26588;SDS011;14235;48.532;8.722;2022-09-21T12:23:29;1.58;;;1.00;;
26588;SDS011;14235;48.532;8.722;2022-09-21T12:26:02;1.23;;;0.98;;
26588;SDS011;14235;48.532;8.722;2022-09-21T12:28:33;2.05;;;1.00;;
26588;SDS011;14235;48.532;8.722;2022-09-21T12:31:06;2.03;;;1.27;;
26588;SDS011;14235;48.532;8.722;2022-09-21T12:36:28;1.38;;;1.10;;
26588;SDS011;14235;48.532;8.722;2022-09-21T12:39:06;1.48;;;1.15;;
26588;SDS011;14235;48.532;8.722;2022-09-21T12:41:59;1.10;;;1.00;;
26588;SDS011;14235;48.532;8.722;2022-09-21T12:44:35;1.67;;;1.10;;
26588;SDS011;14235;48.532;8.722;2022-09-21T12:50:10;2.88;;;1.10;;
26588;SDS011;14235;48.532;8.722;2022-09-21T12:52:45;0.95;;;0.95;;
26588;SDS011;14235;48.532;8.722;2022-09-21T13:01:04;1.15;;;1.05;;
26588;SDS011;14235;48.532;8.722;2022-09-21T13:03:47;1.00;;;0.90;;
26588;SDS011;14235;48.532;8.722;2022-09-21T13:06:39;1.13;;;1.02;;
26588;SDS011;14235;48.532;8.722;2022-09-21T13:09:26;0.70;;;0.70;;
26588;SDS011;14235;48.532;8.722;2022-09-21T13:12:00;1.77;;;1.10;;
26588;SDS011;14235;48.532;8.722;2022-09-21T13:14:32;2.33;;;1.05;;
26588;SDS011;14235;48.532;8.722;2022-09-21T13:17:00;1.52;;;0.98;;
26588;SDS011;14235;48.532;8.722;2022-09-21T13:19:29;2.35;;;0.70;;
26588;SDS011;14235;48.532;8.722;2022-09-21T13:22:20;1.40;;;0.68;;
26588;SDS011;14235;48.532;8.722;2022-09-21T13:28:15;2.25;;;0.80;;
26588;SDS011;14235;48.532;8.722;2022-09-21T13:30:28;2.00;;;0.50;;
26588;SDS011;14235;48.532;8.722;2022-09-21T13:33:03;0.70;;;0.70;;
26588;SDS011;14235;48.532;8.722;2022-09-21T13:41:23;0.73;;;0.73;;
26588;SDS011;14235;48.532;8.722;2022-09-21T13:48:59;0.93;;;0.65;;
26588;SDS011;14235;48.532;8.722;2022-09-21T13:51:26;1.77;;;0.70;;
26588;SDS011;14235;48.532;8.722;2022-09-21T13:53:57;0.82;;;0.50;;
26588;SDS011;14235;48.532;8.722;2022-09-21T13:56:26;0.95;;;0.63;;
26588;SDS011;14235;48.532;8.722;2022-09-21T13:58:53;0.60;;;0.60;;
26588;SDS011;14235;48.532;8.722;2022-09-21T14:01:29;1.10;;;0.45;;
26588;SDS011;14235;48.532;8.722;2022-09-21T14:03:59;2.63;;;0.90;;
26588;SDS011;14235;48.532;8.722;2022-09-21T14:06:43;0.70;;;0.70;;
26588;SDS011;14235;48.532;8.722;2022-09-21T14:09:36;0.60;;;0.60;;
26588;SDS011;14235;48.532;8.722;2022-09-21T14:12:20;1.15;;;0.63;;
26588;SDS011;14235;48.532;8.722;2022-09-21T14:17:43;0.73;;;0.70;;
26588;SDS011;14235;48.532;8.722;2022-09-21T14:20:29;0.98;;;0.70;;
26588;SDS011;14235;48.532;8.722;2022-09-21T14:25:47;0.95;;;0.60;;
26588;SDS011;14235;48.532;8.722;2022-09-21T14:28:15;0.68;;;0.65;;
26588;SDS011;14235;48.532;8.722;2022-09-21T14:30:47;0.77;;;0.60;;
26588;SDS011;14235;48.532;8.722;2022-09-21T14:33:23;1.35;;;0.60;;
26588;SDS011;14235;48.532;8.722;2022-09-21T14:35:53;0.68;;;0.68;;
26588;SDS011;14235;48.532;8.722;2022-09-21T14:41:07;0.70;;;0.70;;
26588;SDS011;14235;48.532;8.722;2022-09-21T14:43:38;1.42;;;0.70;;
26588;SDS011;14235;48.532;8.722;2022-09-21T14:46:15;0.60;;;0.60;;
26588;SDS011;14235;48.532;8.722;2022-09-21T14:59:41;5.22;;;1.20;;
26588;SDS011;14235;48.532;8.722;2022-09-21T15:02:23;1.58;;;0.70;;
26588;SDS011;14235;48.532;8.722;2022-09-21T15:07:54;0.60;;;0.60;;
26588;SDS011;14235;48.532;8.722;2022-09-21T15:11:04;1.08;;;0.90;;
26588;SDS011;14235;48.532;8.722;2022-09-21T15:13:48;1.15;;;0.80;;
26588;SDS011;14235;48.532;8.722;2022-09-21T15:16:41;0.80;;;0.80;;
26588;SDS011;14235;48.532;8.722;2022-09-21T15:21:43;0.60;;;0.50;;
26588;SDS011;14235;48.532;8.722;2022-09-21T15:27:10;1.20;;;1.02;;
26588;SDS011;14235;48.532;8.722;2022-09-21T15:29:40;1.27;;;0.85;;
26588;SDS011;14235;48.532;8.722;2022-09-21T15:35:01;0.98;;;0.85;;
26588;SDS011;14235;48.532;8.722;2022-09-21T15:37:33;2.15;;;0.70;;
26588;SDS011;14235;48.532;8.722;2022-09-21T15:40:01;0.93;;;0.60;;
26588;SDS011;14235;48.532;8.722;2022-09-21T15:42:30;0.77;;;0.70;;
26588;SDS011;14235;48.532;8.722;2022-09-21T15:45:15;0.88;;;0.85;;
26588;SDS011;14235;48.532;8.722;2022-09-21T15:47:42;2.15;;;1.00;;
26588;SDS011;14235;48.532;8.722;2022-09-21T15:50:15;1.52;;;0.80;;
26588;SDS011;14235;48.532;8.722;2022-09-21T15:52:46;2.22;;;0.85;;
26588;SDS011;14235;48.532;8.722;2022-09-21T15:55:23;1.20;;;0.90;;
26588;SDS011;14235;48.532;8.722;2022-09-21T15:57:51;1.20;;;0.85;;
26588;SDS011;14235;48.532;8.722;2022-09-21T16:02:56;0.95;;;0.95;;
26588;SDS011;14235;48.532;8.722;2022-09-21T16:05:47;1.00;;;0.77;;
26588;SDS011;14235;48.532;8.722;2022-09-21T16:08:34;0.90;;;0.90;;
26588;SDS011;14235;48.532;8.722;2022-09-21T16:11:17;2.90;;;1.05;;
26588;SDS011;14235;48.532;8.722;2022-09-21T16:19:38;1.40;;;1.20;;
26588;SDS011;14235;48.532;8.722;2022-09-21T16:22:05;1.38;;;1.27;;
26588;SDS011;14235;48.532;8.722;2022-09-21T16:24:33;1.30;;;1.10;;
26588;SDS011;14235;48.532;8.722;2022-09-21T16:27:00;2.05;;;0.90;;
26588;SDS011;14235;48.532;8.722;2022-09-21T16:29:37;3.20;;;2.00;;
26588;SDS011;14235;48.532;8.722;2022-09-21T16:34:39;1.90;;;1.70;;
26588;SDS011;14235;48.532;8.722;2022-09-21T16:39:53;7.03;;;6.13;;
26588;SDS011;14235;48.532;8.722;2022-09-21T16:42:22;5.55;;;3.22;;
26588;SDS011;14235;48.532;8.722;2022-09-21T16:44:55;2.45;;;2.20;;
26588;SDS011;14235;48.532;8.722;2022-09-21T16:47:22;2.58;;;2.38;;
26588;SDS011;14235;48.532;8.722;2022-09-21T16:49:50;2.40;;;2.20;;
26588;SDS011;14235;48.532;8.722;2022-09-21T16:52:24;2.53;;;2.30;;
26588;SDS011;14235;48.532;8.722;2022-09-21T16:54:52;2.50;;;2.30;;
26588;SDS011;14235;48.532;8.722;2022-09-21T16:57:20;1.92;;;1.83;;
26588;SDS011;14235;48.532;8.722;2022-09-21T16:59:50;2.67;;;2.47;;
26588;SDS011;14235;48.532;8.722;2022-09-21T17:02:19;2.95;;;2.30;;
26588;SDS011;14235;48.532;8.722;2022-09-21T17:04:47;2.08;;;1.58;;
26588;SDS011;14235;48.532;8.722;2022-09-21T17:07:13;1.98;;;1.38;;
26588;SDS011;14235;48.532;8.722;2022-09-21T17:09:40;2.53;;;2.10;;
26588;SDS011;14235;48.532;8.722;2022-09-21T17:12:09;1.40;;;1.30;;
26588;SDS011;14235;48.532;8.722;2022-09-21T17:14:37;1.05;;;1.05;;
26588;SDS011;14235;48.532;8.722;2022-09-21T17:17:09;1.50;;;1.25;;
26588;SDS011;14235;48.532;8.722;2022-09-21T17:19:38;3.75;;;1.30;;
26588;SDS011;14235;48.532;8.722;2022-09-21T17:22:06;2.90;;;1.30;;
26588;SDS011;14235;48.532;8.722;2022-09-21T17:24:34;1.33;;;1.20;;
26588;SDS011;14235;48.532;8.722;2022-09-21T17:27:01;1.23;;;1.20;;
26588;SDS011;14235;48.532;8.722;2022-09-21T17:29:32;4.13;;;1.77;;
26588;SDS011;14235;48.532;8.722;2022-09-21T17:32:04;1.67;;;1.35;;
26588;SDS011;14235;48.532;8.722;2022-09-21T17:34:34;1.45;;;1.30;;
26588;SDS011;14235;48.532;8.722;2022-09-21T17:37:00;1.10;;;1.10;;
26588;SDS011;14235;48.532;8.722;2022-09-21T17:39:28;1.23;;;1.08;;
26588;SDS011;14235;48.532;8.722;2022-09-21T17:42:00;1.13;;;1.13;;
26588;SDS011;14235;48.532;8.722;2022-09-21T17:47:25;1.77;;;1.30;;
26588;SDS011;14235;48.532;8.722;2022-09-21T17:49:53;1.23;;;1.00;;
26588;SDS011;14235;48.532;8.722;2022-09-21T17:52:25;1.42;;;1.40;;
26588;SDS011;14235;48.532;8.722;2022-09-21T17:55:10;1.85;;;1.17;;
26588;SDS011;14235;48.532;8.722;2022-09-21T17:57:39;1.13;;;1.13;;
26588;SDS011;14235;48.532;8.722;2022-09-21T18:00:24;1.60;;;1.60;;
26588;SDS011;14235;48.532;8.722;2022-09-21T18:03:20;5.00;;;2.00;;
26588;SDS011;14235;48.532;8.722;2022-09-21T18:05:49;1.65;;;1.55;;
26588;SDS011;14235;48.532;8.722;2022-09-21T18:08:21;2.30;;;1.50;;
26588;SDS011;14235;48.532;8.722;2022-09-21T18:10:55;1.70;;;1.60;;
26588;SDS011;14235;48.532;8.722;2022-09-21T18:16:15;1.10;;;1.10;;
26588;SDS011;14235;48.532;8.722;2022-09-21T18:21:30;1.50;;;1.40;;
26588;SDS011;14235;48.532;8.722;2022-09-21T18:26:43;2.70;;;1.67;;
26588;SDS011;14235;48.532;8.722;2022-09-21T18:29:14;2.05;;;1.85;;